Decatur, IL (62523)

11:33 AM CST on March 03, 2015 (GMT -0600)
South Shores | Change Station
CLOSE
Current Station
Personal Weather Station
Location: Decatur, IL
Elevation: 699 ft
Nearby Weather Stations

Elev 699 ft 39.81 °N, 88.95 °W | Updated 20 seconds ago

Fog
Fog
36.5 °F
Feels Like 36 °F
N
2.5
Wind Variable Wind from SSW
Gusts 4.9 mph

Today
High -- | Low -- °F
--% Chance of Precip.
Yesterday
High -- | Low -- °F
Precip. -- in
6:26 AM 5:49 PM
Waxing Gibbous, 96% visible
Pressure 29.79 in
Visibility 0.8 miles
Clouds Overcast 300 ft
Windchill 36 °F
Dew Point 34 °F
Humidity 90%
Rainfall 0.00 in
Snow Depth Not available.
UV 1.0 out of 12
Pollen .50 out of 12
Air Quality Not available.
Flu Activity Not available.
METAR KDEC 031654Z 21015KT 3/4SM BR OVC003 02/02 A2977 RMK AO2 UPE01 SLP086 P0006 T00220017

More Conditions Fewer Conditions

Pressure 29.79 in
Visibility 0.8 miles
Clouds Overcast 300 ft
Windchill 36 °F
Dew Point 34 °F
Humidity 90%
Rainfall 0.00 in
Snow Depth Not available.
UV 1.0 out of 12
Pollen .50 out of 12
Air Quality Not available.
Flu Activity Not available.
METAR KDEC 031654Z 21015KT 3/4SM BR OVC003 02/02 A2977 RMK AO2 UPE01 SLP086 P0006 T00220017

More Conditions Fewer Conditions

10-Day Weather Forecast

Almanac

Astronomy

Mar. 03, 2015 Rise Set
Actual Time
Civil Twilight
Nautical Twilight
Astronomical Twilight
Moon
Length of Visible Light
Length of Day
Tomorrow will be .
, % of the Moon is Illuminated

Today's Extremes

State Highs State Lows

Community

WunderPhotos

Upload Photos

1,802,180 photos uploaded!

WunderBlogs® & News

Nearby

Air Quality

  Air Quality AQ Index Pollutant
Not available.

Snow Depth

Station Depth Elevation

Earthquake Activity

City Distance Mag. Time & Date
Minimum magnitude displayed is 2.5.

Coastal Water Temperatures

Place Temperature

Nearby Weather Stations